»·PEaware :: SWA572 KRNO-KEUG

SWA572 :: KRNO-KEUG

FLIGHT INFORMATION

Flight Status: Arrived
Operator:
Southwest Airlines
More flights by this operator :: More flights under this callsign
Pilot: Anonymous 8799 (8799)
Aircraft: BOEING 737-800
(B738)
More flights by this aircraft type
Origin: KRNO Reno/Tahoe Intl
United States
Destination: KEUG Mahlon Sweet
United States
More flights between these airports :: More routes between these airports
Route: +ZEFFR6 BLKJK WNDEL J92 LMT V452 EUG
File this flight plan on PilotEdge
Remarks:
Altitude:
(Current/Filed)
34,000ft
Speed:
(Current/Filed)
450kts
Departed: 09-Jan-19 10:18 AM
Arrived: 09-Jan-19 11:21 AM
Distance/Time
Traveled:
317nm/1:03
Distance/Time
To Go:
Arrived

Flight Plot

Page will automatically refresh every two minutes.

Flight plan parsing failed; only flown route is shown


Map Options




Map Legend


Flown Route
Filed Route
Departure Airport
Arrival Airport
Navaid (VOR, NDB)
Fix

Horizontal Profiles

Position Reports

Time Latitude Longitude Heading Altitude Ground
Speed
09-Jan-19 09:55 39.504467 -119.772783 355 4416ft 0kts
09-Jan-19 09:56 39.504467 -119.772783 355 4416ft 0kts
09-Jan-19 09:57 39.504467 -119.772783 355 4416ft 0kts
09-Jan-19 09:58 39.504467 -119.772783 355 4416ft 0kts
09-Jan-19 09:59 39.504467 -119.772783 355 4416ft 0kts
09-Jan-19 10:00 39.504467 -119.772783 355 4416ft 0kts
09-Jan-19 10:01 39.504467 -119.772783 355 4416ft 0kts
09-Jan-19 10:02 39.504467 -119.772783 355 4416ft 0kts
09-Jan-19 10:03 39.504467 -119.772783 355 4416ft 0kts
09-Jan-19 10:04 39.504160 -119.772772 14 4416ft 2kts
09-Jan-19 10:05 39.503745 -119.773283 76 4416ft 2kts
09-Jan-19 10:06 39.503728 -119.773505 90 4417ft 0kts
09-Jan-19 10:07 39.503728 -119.773505 90 4417ft 0kts
09-Jan-19 10:08 39.503727 -119.773396 90 4417ft 0kts
09-Jan-19 10:09 39.503727 -119.773396 90 4417ft 0kts
09-Jan-19 10:10 39.503716 -119.772396 91 4415ft 11kts
09-Jan-19 10:11 39.507709 -119.771477 2 4416ft 17kts
09-Jan-19 10:12 39.513238 -119.771505 359 4422ft 19kts
09-Jan-19 10:13 39.513843 -119.770844 84 4422ft 0kts
09-Jan-19 10:14 39.513843 -119.770844 84 4422ft 0kts
09-Jan-19 10:15 39.513843 -119.770844 84 4422ft 0kts
09-Jan-19 10:16 39.513819 -119.770334 96 4422ft 8kts
09-Jan-19 10:17 39.496319 -119.769145 179 4895ft 160kts
09-Jan-19 10:18 39.436035 -119.767056 180 7968ft 261kts
09-Jan-19 10:19 39.364603 -119.769233 184 12999ft 259kts
09-Jan-19 10:20 39.297326 -119.725782 136 16770ft 317kts
09-Jan-19 10:21 39.261622 -119.605338 99 19547ft 396kts
09-Jan-19 10:22 39.302703 -119.467912 39 22695ft 448kts
09-Jan-19 10:23 39.421941 -119.449454 336 25515ft 444kts
09-Jan-19 10:24 39.526471 -119.527018 316 28186ft 440kts
09-Jan-19 10:25 39.628528 -119.618613 316 30581ft 454kts
09-Jan-19 10:26 39.732450 -119.712153 316 33320ft 453kts
09-Jan-19 10:27 39.837074 -119.806837 317 34106ft 461kts
09-Jan-19 10:28 39.941916 -119.901992 317 34107ft 461kts
09-Jan-19 10:29 40.047263 -119.997985 317 34108ft 461kts
09-Jan-19 10:30 40.151582 -120.093441 317 34095ft 461kts
09-Jan-19 10:31 40.256257 -120.189607 317 34097ft 461kts
09-Jan-19 10:32 40.361149 -120.286302 317 34096ft 461kts
09-Jan-19 10:33 40.469792 -120.376949 321 34097ft 465kts
09-Jan-19 10:34 40.580144 -120.465501 321 34097ft 465kts
09-Jan-19 10:35 40.690377 -120.554231 321 34090ft 465kts
09-Jan-19 10:36 40.800499 -120.642839 321 34066ft 465kts
09-Jan-19 10:37 40.910245 -120.731082 320 34071ft 464kts
09-Jan-19 10:38 41.020780 -120.819924 321 34072ft 465kts
09-Jan-19 10:39 41.128240 -120.906258 321 34058ft 464kts
09-Jan-19 10:40 41.237476 -120.993967 321 34058ft 463kts
09-Jan-19 10:41 41.346574 -121.081519 321 34041ft 463kts
09-Jan-19 10:42 41.456469 -121.169648 321 34008ft 463kts
09-Jan-19 10:43 41.565938 -121.257393 321 33998ft 462kts
09-Jan-19 10:44 41.675462 -121.345152 322 33999ft 462kts
09-Jan-19 10:45 41.785231 -121.433046 322 33999ft 460kts
09-Jan-19 10:46 41.894452 -121.520476 322 34000ft 460kts
09-Jan-19 10:47 42.003757 -121.607933 322 33638ft 461kts
09-Jan-19 10:48 42.111645 -121.694202 321 32593ft 463kts
09-Jan-19 10:49 42.212834 -121.771847 324 31522ft 469kts
09-Jan-19 10:50 42.319279 -121.849933 323 30127ft 475kts
09-Jan-19 10:51 42.434838 -121.935048 323 28629ft 476kts
09-Jan-19 10:52 42.545665 -122.016878 324 27204ft 477kts
09-Jan-19 10:53 42.656084 -122.100204 324 25787ft 480kts
09-Jan-19 10:54 42.771859 -122.187704 324 24313ft 483kts
09-Jan-19 10:55 42.889750 -122.276779 325 23901ft 485kts
09-Jan-19 10:56 43.004548 -122.363459 325 22993ft 486kts
09-Jan-19 10:57 43.119689 -122.450247 325 21911ft 456kts
09-Jan-19 10:58 43.226411 -122.530889 325 20427ft 429kts
09-Jan-19 10:59 43.320769 -122.601911 324 18257ft 378kts
09-Jan-19 11:00 43.414325 -122.672925 323 15830ft 401kts
09-Jan-19 11:01 43.507786 -122.744967 323 13329ft 385kts
09-Jan-19 11:02 43.601388 -122.817365 324 10840ft 383kts
09-Jan-19 11:03 43.681457 -122.878917 322 10096ft 294kts
09-Jan-19 11:04 43.752295 -122.933958 323 8972ft 291kts
09-Jan-19 11:06 43.822584 -122.987999 325 7598ft 288kts
09-Jan-19 11:07 43.901440 -123.008719 354 6032ft 284kts
09-Jan-19 11:08 43.977645 -123.014621 354 5985ft 274kts
09-Jan-19 11:09 44.051879 -123.020396 354 5984ft 254kts
09-Jan-19 11:10 44.120170 -123.025818 354 5410ft 248kts
09-Jan-19 11:11 44.185027 -123.031813 354 4978ft 225kts
09-Jan-19 11:12 44.247045 -123.037576 354 4974ft 222kts
09-Jan-19 11:13 44.306440 -123.049208 314 4036ft 203kts
09-Jan-19 11:14 44.322990 -123.118569 274 3937ft 193kts
09-Jan-19 11:15 44.320257 -123.181019 209 3008ft 154kts
09-Jan-19 11:16 44.283446 -123.211177 205 2524ft 149kts
09-Jan-19 11:17 44.245548 -123.220880 178 1971ft 136kts
09-Jan-19 11:18 44.207747 -123.220215 178 1792ft 134kts
09-Jan-19 11:19 44.174006 -123.219717 179 1156ft 114kts
09-Jan-19 11:20 44.141705 -123.219208 179 516ft 118kts
09-Jan-19 11:21 44.120364 -123.217998 133 375ft 8kts
09-Jan-19 11:22 44.120254 -123.217832 132 375ft 0kts
09-Jan-19 11:22 44.119605 -123.216730 119 375ft 14kts
09-Jan-19 11:24 44.119505 -123.214276 58 375ft 0kts

Navigation Log

Ident Type
Flight plan parsing failed, navigation log unavailable